Time;durP1;ratioP1;P1;durP2;ratioP2;P2;SDS_P1;SDS_P2;PMS_P1;PMS_P2;Temp;Humidity;BMP_temperature;BMP_pressure;BME280_temperature;BME280_humidity;BME280_pressure;Samples;Min_cycle;Max_cycle;Signal;HPM_P1;HPM_P2
2021/12/28 00:01:45;;;;;;;14.90;6.80;;;4.70;99.90;;;;;;4270052;27;20039;-87
2021/12/28 00:03:46;;;;;;;13.63;5.82;;;2.50;99.90;;;;;;4235100;28;20084;-87
2021/12/28 00:05:46;;;;;;;13.48;5.95;;;3.70;99.90;;;;;;4266579;27;20031;-86
2021/12/28 00:07:50;;;;;;;14.35;5.75;;;4.20;99.90;;;;;;4234234;28;20161;-86
2021/12/28 00:09:51;;;;;;;12.77;6.07;;;3.60;99.90;;;;;;4252194;27;20054;-86
2021/12/28 00:11:51;;;;;;;15.38;5.95;;;4.90;99.90;;;;;;4251453;27;20039;-86
2021/12/28 00:13:59;;;;;;;14.10;6.28;;;4.60;99.90;;;;;;4216416;28;20055;-86
2021/12/28 00:16:24;;;;;;;15.70;6.30;;;5.10;99.90;;;;;;4232153;28;20132;-86
2021/12/28 00:18:26;;;;;;;12.80;6.15;;;4.50;99.90;;;;;;4250124;27;20043;-86
2021/12/28 00:20:27;;;;;;;13.50;5.63;;;4.50;99.90;;;;;;4251162;27;20043;-86
2021/12/28 00:22:28;;;;;;;13.27;6.22;;;4.80;99.90;;;;;;4232017;28;20130;-86
2021/12/28 00:24:29;;;;;;;12.43;6.43;;;4.30;99.90;;;;;;4250332;27;20043;-86
2021/12/28 00:26:30;;;;;;;17.98;6.05;;;5.00;99.90;;;;;;4215406;28;20040;-86
2021/12/28 00:28:32;;;;;;;13.07;6.43;;;5.10;99.90;;;;;;4231595;28;20126;-86
2021/12/28 00:30:33;;;;;;;12.55;6.70;;;4.50;99.90;;;;;;4231865;28;20050;-86
2021/12/28 00:32:36;;;;;;;12.95;5.80;;;4.30;99.90;;;;;;4250348;27;20390;-86
2021/12/28 00:34:37;;;;;;;21.88;6.32;;;4.00;99.90;;;;;;4215243;28;20153;-86
2021/12/28 00:36:38;;;;;;;14.95;6.90;;;3.90;99.90;;;;;;4236575;27;20488;-86
2021/12/28 00:38:39;;;;;;;16.15;6.97;;;4.00;99.90;;;;;;4214225;28;20111;-86
2021/12/28 00:40:41;;;;;;;14.98;6.50;;;5.30;99.90;;;;;;4230914;28;20055;-87
2021/12/28 00:42:43;;;;;;;15.95;6.28;;;4.20;99.90;;;;;;4214606;28;20071;-86
2021/12/28 00:44:45;;;;;;;14.70;6.75;;;4.40;99.90;;;;;;4232680;28;20424;-86
2021/12/28 00:46:47;;;;;;;14.70;7.32;;;5.30;99.90;;;;;;4216443;28;20047;-86
2021/12/28 00:48:48;;;;;;;13.55;6.47;;;5.10;99.90;;;;;;4234046;28;20051;-86
2021/12/28 00:50:50;;;;;;;15.68;5.88;;;5.30;99.90;;;;;;4235901;28;20055;-86
2021/12/28 00:52:51;;;;;;;15.48;6.78;;;4.40;99.90;;;;;;4217526;28;20043;-86
2021/12/28 00:54:51;;;;;;;14.52;5.82;;;5.30;99.90;;;;;;4264101;27;20039;-86
2021/12/28 00:56:53;;;;;;;13.63;6.57;;;5.40;99.90;;;;;;4267032;27;20047;-86
2021/12/28 00:58:55;;;;;;;14.63;7.10;;;5.30;99.90;;;;;;4231516;28;20086;-85
2021/12/28 01:00:57;;;;;;;16.20;6.85;;;5.20;99.90;;;;;;4247805;27;20053;-85
2021/12/28 01:02:59;;;;;;;16.38;7.15;;;5.60;99.90;;;;;;4248147;27;20051;-85
2021/12/28 01:05:01;;;;;;;12.50;6.05;;;5.10;99.90;;;;;;4248368;27;20058;-86
2021/12/28 01:07:03;;;;;;;17.70;7.15;;;5.10;99.90;;;;;;4248480;27;20039;-85
2021/12/28 01:09:03;;;;;;;15.07;6.78;;;4.20;99.90;;;;;;4266484;27;20039;-85
2021/12/28 01:11:06;;;;;;;14.57;7.10;;;4.60;99.90;;;;;;4266001;27;20061;-86
2021/12/28 01:13:08;;;;;;;18.67;7.13;;;4.40;99.90;;;;;;4248922;27;20047;-86
2021/12/28 01:15:14;;;;;;;12.82;6.53;;;4.50;99.90;;;;;;4262040;27;20047;-85
2021/12/28 01:17:16;;;;;;;16.27;6.80;;;4.60;99.90;;;;;;4214714;28;20048;-85
2021/12/28 01:19:16;;;;;;;16.83;7.55;;;4.80;99.90;;;;;;4214883;28;20436;-85
2021/12/28 01:21:19;;;;;;;14.45;6.72;;;4.30;99.90;;;;;;4213864;28;20090;-86
2021/12/28 01:23:19;;;;;;;17.83;7.18;;;5.10;99.90;;;;;;4249161;27;20043;-86
2021/12/28 01:25:21;;;;;;;13.82;6.70;;;4.30;99.90;;;;;;4231573;28;20423;-85
2021/12/28 01:27:22;;;;;;;16.33;7.53;;;5.50;99.90;;;;;;4214150;28;20496;-85
2021/12/28 01:29:24;;;;;;;13.95;7.00;;;5.00;99.90;;;;;;4213897;28;20086;-85
2021/12/28 01:31:25;;;;;;;18.30;7.35;;;4.10;99.90;;;;;;4231058;28;20404;-86
2021/12/28 01:33:26;;;;;;;19.60;8.52;;;5.60;99.90;;;;;;4249019;27;20038;-86
2021/12/28 01:35:31;;;;;;;19.83;8.85;;;5.40;99.90;;;;;;4230744;28;20051;-86
2021/12/28 01:37:33;;;;;;;22.42;8.32;;;4.50;99.90;;;;;;4213753;28;20072;-86
2021/12/28 01:39:34;;;;;;;18.35;7.80;;;4.80;99.90;;;;;;4230521;28;20605;-86
2021/12/28 01:41:35;;;;;;;22.75;8.38;;;5.60;99.90;;;;;;4230716;28;20055;-86
2021/12/28 01:43:40;;;;;;;17.73;7.53;;;5.30;99.90;;;;;;4214446;28;20102;-85
2021/12/28 01:45:44;;;;;;;17.88;7.30;;;5.50;99.90;;;;;;4213863;28;20126;-86
2021/12/28 01:47:44;;;;;;;21.48;7.63;;;4.60;99.90;;;;;;4230496;28;20058;-85
2021/12/28 01:49:46;;;;;;;22.95;8.00;;;5.10;99.90;;;;;;4230848;28;20554;-86
2021/12/28 01:51:47;;;;;;;23.05;8.65;;;5.30;99.90;;;;;;4249042;27;20417;-86
2021/12/28 01:53:51;;;;;;;20.08;8.27;;;5.10;99.90;;;;;;4213828;28;20052;-86
2021/12/28 01:55:55;;;;;;;21.50;9.60;;;5.10;99.90;;;;;;4213814;28;20614;-85
2021/12/28 01:57:56;;;;;;;21.63;8.10;;;5.40;99.90;;;;;;4230447;28;20122;-85
2021/12/28 01:59:56;;;;;;;22.20;7.88;;;4.50;99.90;;;;;;4229810;28;20089;-86
2021/12/28 02:01:58;;;;;;;18.88;8.95;;;5.10;99.90;;;;;;4230222;28;20470;-86
2021/12/28 02:04:01;;;;;;;21.25;7.93;;;5.40;99.90;;;;;;4232080;28;20077;-86
2021/12/28 02:06:02;;;;;;;24.33;7.63;;;5.60;99.90;;;;;;4213529;28;20040;-85
2021/12/28 02:08:04;;;;;;;27.50;9.43;;;4.30;99.90;;;;;;4213650;28;20127;-86
2021/12/28 02:10:05;;;;;;;21.70;8.48;;;4.30;99.90;;;;;;4230395;28;20055;-86
2021/12/28 02:12:07;;;;;;;27.10;9.75;;;4.30;99.90;;;;;;4230114;28;20061;-85
2021/12/28 02:14:08;;;;;;;22.52;8.63;;;4.30;99.90;;;;;;4230256;28;20051;-85
2021/12/28 02:16:09;;;;;;;35.10;9.35;;;4.10;99.90;;;;;;4230532;28;20047;-85
2021/12/28 02:18:12;;;;;;;23.77;8.77;;;4.30;99.90;;;;;;4230419;28;20495;-85
2021/12/28 02:20:16;;;;;;;30.42;8.23;;;4.30;99.90;;;;;;4248599;27;20126;-85
2021/12/28 02:22:17;;;;;;;25.60;8.65;;;4.30;99.90;;;;;;4248411;27;20079;-86
2021/12/28 02:24:18;;;;;;;22.95;8.85;;;5.20;99.90;;;;;;4249025;27;20046;-86
2021/12/28 02:26:19;;;;;;;25.10;9.30;;;4.30;99.90;;;;;;4231009;28;20095;-85
2021/12/28 02:28:20;;;;;;;33.50;8.75;;;4.70;99.90;;;;;;4249091;27;20126;-85
2021/12/28 02:30:22;;;;;;;23.40;8.50;;;4.30;99.90;;;;;;4249206;27;20072;-85
2021/12/28 02:32:28;;;;;;;33.42;8.25;;;5.40;99.90;;;;;;4230884;28;20047;-84
2021/12/28 02:34:29;;;;;;;51.50;9.93;;;5.20;99.90;;;;;;4214582;28;20040;-85
2021/12/28 02:36:30;;;;;;;48.20;11.45;;;5.40;99.90;;;;;;4216250;28;20459;-85
2021/12/28 02:38:33;;;;;;;38.78;9.73;;;5.50;99.90;;;;;;4233773;28;20047;-85
2021/12/28 02:40:35;;;;;;;36.33;9.75;;;5.30;99.90;;;;;;4215973;28;20095;-85
2021/12/28 02:42:36;;;;;;;31.00;9.68;;;4.40;99.90;;;;;;4215017;28;20105;-86
2021/12/28 02:44:37;;;;;;;46.22;11.32;;;5.00;99.90;;;;;;4233330;28;20051;-86
2021/12/28 02:46:37;;;;;;;43.42;10.00;;;4.50;99.90;;;;;;4230334;28;20079;-86
2021/12/28 02:48:41;;;;;;;62.22;11.73;;;5.30;99.90;;;;;;4215681;28;20048;-86
2021/12/28 02:50:48;;;;;;;43.00;10.60;;;4.50;99.90;;;;;;4231536;28;20048;-85
2021/12/28 02:52:49;;;;;;;39.72;10.73;;;5.70;99.90;;;;;;4229632;28;20109;-85
2021/12/28 02:54:51;;;;;;;44.60;9.40;;;4.90;99.90;;;;;;4212747;28;20097;-86
2021/12/28 02:56:52;;;;;;;46.65;11.88;;;4.70;99.90;;;;;;4247897;28;20070;-86
2021/12/28 02:58:53;;;;;;;46.08;11.00;;;5.00;99.90;;;;;;4212575;28;20056;-85
2021/12/28 03:01:12;;;;;;;49.88;12.77;;;5.60;99.90;;;;;;4212994;28;20052;-86
2021/12/28 03:03:19;;;;;;;47.10;12.20;;;4.50;99.90;;;;;;4248185;28;20060;-86
2021/12/28 03:05:21;;;;;;;73.07;11.73;;;5.80;99.90;;;;;;4213520;28;20431;-86
2021/12/28 03:07:23;;;;;;;49.50;12.25;;;4.80;99.90;;;;;;4230791;28;20085;-85
2021/12/28 03:09:23;;;;;;;62.58;11.65;;;5.20;99.90;;;;;;4230765;28;20431;-85
2021/12/28 03:11:27;;;;;;;54.00;11.93;;;6.00;99.90;;;;;;4214765;28;20036;-86
2021/12/28 03:13:43;;;;;;;57.28;11.95;;;5.80;99.90;;;;;;4248786;28;20043;-85
2021/12/28 03:15:44;;;;;;;68.43;11.88;;;4.60;99.90;;;;;;4255682;27;20038;-86
2021/12/28 03:17:44;;;;;;;60.40;12.13;;;5.60;99.90;;;;;;4229484;28;20075;-86
2021/12/28 03:19:45;;;;;;;48.95;12.18;;;4.60;99.90;;;;;;4230503;28;20122;-86
2021/12/28 03:21:46;;;;;;;58.65;12.18;;;5.60;99.90;;;;;;4229745;28;20055;-86
2021/12/28 03:23:48;;;;;;;68.32;11.55;;;4.60;99.90;;;;;;4229721;28;20048;-86
2021/12/28 03:25:51;;;;;;;52.67;11.90;;;5.00;99.90;;;;;;4246399;28;20561;-85
2021/12/28 03:27:53;;;;;;;55.97;12.85;;;6.00;99.90;;;;;;4246688;28;20092;-85
2021/12/28 03:29:54;;;;;;;50.10;11.45;;;5.50;99.90;;;;;;4230212;28;20044;-86
2021/12/28 03:31:56;;;;;;;58.35;12.57;;;4.70;99.90;;;;;;4231349;28;20522;-85
2021/12/28 03:33:57;;;;;;;62.75;12.88;;;5.40;99.90;;;;;;4252041;27;20643;-86
2021/12/28 03:35:59;;;;;;;66.97;13.18;;;5.90;99.90;;;;;;4236731;28;20055;-85
2021/12/28 03:38:00;;;;;;;61.08;12.57;;;6.10;99.90;;;;;;4235086;28;20043;-85
2021/12/28 03:40:03;;;;;;;58.45;13.57;;;4.80;99.90;;;;;;4237605;28;20060;-85
2021/12/28 03:42:05;;;;;;;72.80;13.80;;;4.80;99.90;;;;;;4239683;28;20067;-85
2021/12/28 03:44:06;;;;;;;72.78;13.15;;;4.80;99.90;;;;;;4234486;28;20396;-85
2021/12/28 03:46:08;;;;;;;61.83;12.85;;;4.80;99.90;;;;;;4250606;27;20081;-85
2021/12/28 03:48:10;;;;;;;61.25;13.30;;;4.70;99.90;;;;;;4232749;28;20139;-85
2021/12/28 03:50:11;;;;;;;64.38;12.15;;;5.90;99.90;;;;;;4268394;27;20452;-85
2021/12/28 03:52:12;;;;;;;53.30;13.30;;;4.90;99.90;;;;;;4239687;28;20066;-85
2021/12/28 03:54:13;;;;;;;77.00;13.38;;;5.30;99.90;;;;;;4280155;27;20092;-85
2021/12/28 03:56:15;;;;;;;56.05;14.15;;;6.20;99.90;;;;;;4243380;28;20047;-86
2021/12/28 03:58:15;;;;;;;67.97;12.40;;;4.90;99.90;;;;;;4233218;28;20142;-86
2021/12/28 04:00:18;;;;;;;77.32;14.27;;;5.80;99.90;;;;;;4232025;28;20059;-86
2021/12/28 04:02:20;;;;;;;86.22;13.93;;;5.80;99.90;;;;;;4249771;27;20054;-86
2021/12/28 04:04:21;;;;;;;65.47;12.93;;;5.90;99.90;;;;;;4249839;27;20119;-86
2021/12/28 04:06:22;;;;;;;82.80;14.25;;;6.20;99.90;;;;;;4249612;27;20043;-86
2021/12/28 04:08:24;;;;;;;64.20;13.10;;;5.20;99.90;;;;;;4232576;28;20541;-86
2021/12/28 04:10:32;;;;;;;67.05;12.73;;;5.00;99.90;;;;;;4249166;27;20047;-85
2021/12/28 04:12:33;;;;;;;79.93;13.82;;;6.40;99.90;;;;;;4232421;28;20051;-86
2021/12/28 04:14:34;;;;;;;59.78;13.68;;;6.00;99.90;;;;;;4232437;28;20044;-86
2021/12/28 04:16:35;;;;;;;52.65;13.10;;;4.50;99.90;;;;;;4249217;27;20041;-85
2021/12/28 04:18:36;;;;;;;85.95;14.02;;;5.10;99.90;;;;;;4249003;27;20111;-86
2021/12/28 04:20:36;;;;;;;59.17;13.27;;;6.00;99.90;;;;;;4249651;27;20595;-86
2021/12/28 04:22:38;;;;;;;58.75;13.05;;;6.00;99.90;;;;;;4267315;27;20134;-86
2021/12/28 04:24:39;;;;;;;81.43;13.18;;;5.60;99.90;;;;;;4249039;27;20075;-86
2021/12/28 04:26:41;;;;;;;66.82;13.27;;;5.00;99.90;;;;;;4267107;27;20432;-86
2021/12/28 04:28:42;;;;;;;167.50;18.33;;;5.40;99.90;;;;;;4231968;28;20314;-87
2021/12/28 04:30:42;;;;;;;185.80;18.17;;;6.00;99.90;;;;;;4231846;28;20384;-87
2021/12/28 04:32:44;;;;;;;71.13;13.18;;;6.20;99.90;;;;;;4269746;27;20034;-87
2021/12/28 04:34:44;;;;;;;146.48;16.55;;;6.20;99.90;;;;;;4250114;27;20514;-86
2021/12/28 04:36:47;;;;;;;59.47;11.70;;;4.90;99.90;;;;;;4267849;27;20049;-87
2021/12/28 04:38:47;;;;;;;50.45;11.27;;;6.10;99.90;;;;;;4248191;27;20088;-86
2021/12/28 04:40:48;;;;;;;131.80;15.90;;;5.80;99.90;;;;;;4266624;27;20383;-86
2021/12/28 04:42:49;;;;;;;69.05;12.80;;;5.20;99.90;;;;;;4231656;28;20079;-86
2021/12/28 04:44:50;;;;;;;124.35;15.90;;;5.10;99.90;;;;;;4247953;27;20035;-86
2021/12/28 04:46:53;;;;;;;100.50;14.43;;;5.00;99.90;;;;;;4267334;27;20083;-86
2021/12/28 04:48:54;;;;;;;80.03;13.65;;;4.10;99.90;;;;;;4266936;27;20049;-86
2021/12/28 04:50:55;;;;;;;87.97;14.57;;;5.20;99.90;;;;;;4248300;27;20126;-86
2021/12/28 04:52:58;;;;;;;121.38;15.35;;;5.00;99.90;;;;;;4266633;27;20077;-86
2021/12/28 04:54:58;;;;;;;82.55;13.30;;;5.90;99.90;;;;;;4266972;27;20039;-86
2021/12/28 04:56:59;;;;;;;79.50;13.90;;;6.00;99.90;;;;;;4231574;28;20559;-86
2021/12/28 04:59:01;;;;;;;91.53;15.13;;;6.10;99.90;;;;;;4266750;27;20035;-86
2021/12/28 05:01:02;;;;;;;94.03;15.32;;;5.80;99.90;;;;;;4248813;27;20440;-86
2021/12/28 05:03:04;;;;;;;100.68;14.50;;;5.00;99.90;;;;;;4231750;28;20047;-87
2021/12/28 05:05:05;;;;;;;71.95;14.30;;;6.00;99.90;;;;;;4248974;27;20055;-86
2021/12/28 05:07:06;;;;;;;102.80;15.65;;;5.00;99.90;;;;;;4231872;28;20060;-86
2021/12/28 05:09:10;;;;;;;76.18;14.02;;;5.10;99.90;;;;;;4266600;27;20042;-86
2021/12/28 05:11:10;;;;;;;81.72;13.27;;;6.30;99.90;;;;;;4248276;27;20054;-86
2021/12/28 05:13:12;;;;;;;57.47;12.57;;;5.20;99.90;;;;;;4231779;28;20086;-87
2021/12/28 05:15:14;;;;;;;101.70;15.73;;;6.30;99.90;;;;;;4265473;27;20039;-86
2021/12/28 05:17:15;;;;;;;117.78;15.23;;;4.60;99.90;;;;;;4231732;28;20044;-86
2021/12/28 05:19:15;;;;;;;116.28;16.92;;;5.60;99.90;;;;;;4231563;28;20058;-86
2021/12/28 05:21:17;;;;;;;88.82;14.55;;;6.00;99.90;;;;;;4248450;27;20130;-86
2021/12/28 05:23:18;;;;;;;104.95;16.80;;;6.50;99.90;;;;;;4266309;27;20069;-86
2021/12/28 05:25:20;;;;;;;111.05;16.45;;;5.30;99.90;;;;;;4231702;28;20054;-86
2021/12/28 05:27:21;;;;;;;119.45;18.08;;;5.90;99.90;;;;;;4266043;27;20479;-86
2021/12/28 05:29:22;;;;;;;131.18;16.08;;;5.00;99.90;;;;;;4230943;28;20050;-86
2021/12/28 05:31:25;;;;;;;120.63;17.65;;;6.50;99.90;;;;;;4230666;28;20110;-86
2021/12/28 05:33:26;;;;;;;128.80;18.00;;;6.50;99.90;;;;;;4247946;27;20595;-86
2021/12/28 05:35:28;;;;;;;113.70;17.27;;;6.20;99.90;;;;;;4230365;28;20076;-86
2021/12/28 05:37:30;;;;;;;123.50;17.60;;;5.90;99.90;;;;;;4266108;27;20126;-86
2021/12/28 05:39:30;;;;;;;185.98;20.70;;;5.60;99.90;;;;;;4230333;28;20055;-86
2021/12/28 05:41:31;;;;;;;92.78;15.05;;;6.20;99.90;;;;;;4247775;27;20039;-86
2021/12/28 05:43:32;;;;;;;75.47;14.07;;;6.60;99.90;;;;;;4248639;27;20388;-86
2021/12/28 05:45:33;;;;;;;66.97;12.80;;;6.40;99.90;;;;;;4248835;27;20108;-86
2021/12/28 05:47:35;;;;;;;72.35;12.25;;;6.50;99.90;;;;;;4234980;28;20066;-87
2021/12/28 05:49:36;;;;;;;57.67;13.10;;;5.70;99.90;;;;;;4237880;28;20111;-86
2021/12/28 05:51:37;;;;;;;64.05;13.05;;;6.40;99.90;;;;;;4267568;27;20051;-86
2021/12/28 05:53:38;;;;;;;56.83;12.60;;;6.30;99.90;;;;;;4250845;28;20043;-85
2021/12/28 05:55:39;;;;;;;43.45;11.45;;;6.30;99.90;;;;;;4265057;27;20043;-86
2021/12/28 05:57:40;;;;;;;48.50;11.60;;;5.30;99.90;;;;;;4254037;27;20481;-86
2021/12/28 05:59:40;;;;;;;47.83;11.82;;;6.50;99.90;;;;;;4232174;28;20047;-87
2021/12/28 06:01:41;;;;;;;52.30;11.52;;;5.30;99.90;;;;;;4247232;27;20062;-87
2021/12/28 06:03:43;;;;;;;38.88;10.68;;;5.30;99.90;;;;;;4231486;28;20576;-87
2021/12/28 06:05:44;;;;;;;56.15;12.30;;;6.40;99.90;;;;;;4247643;27;20403;-86
2021/12/28 06:07:47;;;;;;;36.40;11.00;;;6.10;99.90;;;;;;4249309;27;20035;-86
2021/12/28 06:09:47;;;;;;;42.20;11.75;;;6.60;99.90;;;;;;4246940;27;20047;-86
2021/12/28 06:11:48;;;;;;;42.33;11.15;;;6.40;99.90;;;;;;4247870;27;20043;-86
2021/12/28 06:13:49;;;;;;;39.65;10.70;;;6.20;99.90;;;;;;4247944;27;20122;-86
2021/12/28 06:15:50;;;;;;;36.50;10.48;;;6.30;99.90;;;;;;4230768;28;20557;-87
2021/12/28 06:17:50;;;;;;;37.22;10.77;;;6.10;99.90;;;;;;4247169;27;20064;-86
2021/12/28 06:19:51;;;;;;;34.33;10.25;;;6.40;99.90;;;;;;4229622;28;20101;-86
2021/12/28 06:21:52;;;;;;;35.47;10.30;;;5.20;99.90;;;;;;4229303;28;20043;-86
2021/12/28 06:23:53;;;;;;;41.95;10.80;;;6.20;99.90;;;;;;4246842;27;20152;-86
2021/12/28 06:25:53;;;;;;;35.80;10.25;;;5.70;99.90;;;;;;4229833;28;20442;-86
2021/12/28 06:27:54;;;;;;;40.75;10.10;;;6.30;99.90;;;;;;4243496;27;20067;-87
2021/12/28 06:29:55;;;;;;;38.83;10.15;;;5.90;99.90;;;;;;4229427;28;20067;-86
2021/12/28 06:31:56;;;;;;;39.58;10.23;;;5.80;99.90;;;;;;4232357;28;20043;-86
2021/12/28 06:34:00;;;;;;;34.40;10.95;;;6.60;99.90;;;;;;4212142;28;20105;-86
2021/12/28 06:36:01;;;;;;;30.48;10.32;;;6.50;99.90;;;;;;4231283;28;20044;-87
2021/12/28 06:38:02;;;;;;;36.10;10.10;;;5.30;99.90;;;;;;4230953;28;20140;-86
2021/12/28 06:40:05;;;;;;;34.67;9.38;;;6.50;99.90;;;;;;4229235;28;20051;-86
2021/12/28 06:42:06;;;;;;;31.83;11.38;;;4.30;99.90;;;;;;4229304;28;20081;-86
2021/12/28 06:44:09;;;;;;;43.90;10.60;;;5.30;99.90;;;;;;4230586;28;20426;-86
2021/12/28 06:46:10;;;;;;;36.53;10.80;;;6.50;99.90;;;;;;4230092;28;20097;-86
2021/12/28 06:48:11;;;;;;;40.80;12.70;;;5.30;99.90;;;;;;4212613;28;20040;-86
2021/12/28 06:50:13;;;;;;;39.20;10.13;;;5.90;99.90;;;;;;4230705;28;20461;-86
2021/12/28 06:52:14;;;;;;;33.28;9.70;;;5.70;99.90;;;;;;4212539;28;20052;-86
2021/12/28 06:54:15;;;;;;;33.00;9.38;;;5.30;99.90;;;;;;4229218;28;20137;-87
2021/12/28 06:56:15;;;;;;;36.97;9.95;;;6.00;99.90;;;;;;4229565;28;20039;-86
2021/12/28 06:58:16;;;;;;;32.25;9.93;;;5.30;99.90;;;;;;4231062;28;20051;-86
2021/12/28 07:00:19;;;;;;;32.15;10.20;;;6.10;99.90;;;;;;4234577;28;20070;-86
2021/12/28 07:02:20;;;;;;;33.35;9.20;;;5.30;99.90;;;;;;4234347;28;20046;-87
2021/12/28 07:04:22;;;;;;;35.83;10.52;;;5.30;99.90;;;;;;4212654;28;20058;-86
2021/12/28 07:06:24;;;;;;;30.20;10.45;;;5.30;99.90;;;;;;4230490;28;20040;-86
2021/12/28 07:08:26;;;;;;;30.05;9.27;;;6.00;99.90;;;;;;4233763;28;20379;-87
2021/12/28 07:10:27;;;;;;;23.13;8.13;;;6.30;99.90;;;;;;4215452;28;20086;-86
2021/12/28 07:12:28;;;;;;;30.80;9.82;;;6.30;99.90;;;;;;4232589;28;20078;-86
2021/12/28 07:14:29;;;;;;;32.30;9.55;;;6.40;99.90;;;;;;4232892;28;20048;-86
2021/12/28 07:16:29;;;;;;;32.63;9.90;;;5.30;99.90;;;;;;4232651;28;20047;-85
2021/12/28 07:18:30;;;;;;;36.60;10.00;;;5.70;99.90;;;;;;4234073;28;20104;-85
2021/12/28 07:20:32;;;;;;;25.63;7.82;;;5.30;99.90;;;;;;4215900;28;20091;-86
2021/12/28 07:22:33;;;;;;;25.95;9.05;;;5.30;99.90;;;;;;4232056;28;20122;-86
2021/12/28 07:24:33;;;;;;;31.38;10.48;;;5.90;99.90;;;;;;4233622;28;20051;-86
2021/12/28 07:26:35;;;;;;;33.75;8.45;;;5.30;99.90;;;;;;4232586;28;20051;-86
2021/12/28 07:28:36;;;;;;;30.65;9.80;;;6.40;99.90;;;;;;4232401;28;20043;-85
2021/12/28 07:30:38;;;;;;;27.48;9.15;;;6.50;99.90;;;;;;4233905;28;20047;-85
2021/12/28 07:32:40;;;;;;;30.80;9.20;;;4.50;99.90;;;;;;4233535;28;20086;-85
2021/12/28 07:34:40;;;;;;;33.33;9.27;;;6.20;99.90;;;;;;4232129;28;20032;-86
2021/12/28 07:36:41;;;;;;;33.47;9.82;;;5.30;99.90;;;;;;4234134;28;20095;-85
2021/12/28 07:38:43;;;;;;;33.78;8.65;;;6.40;99.90;;;;;;4232472;28;20126;-85
2021/12/28 07:40:45;;;;;;;30.70;9.15;;;5.20;99.90;;;;;;4232288;28;20048;-85
2021/12/28 07:42:46;;;;;;;36.45;9.75;;;5.20;99.90;;;;;;4236405;27;20487;-86
2021/12/28 07:44:49;;;;;;;28.90;8.77;;;6.40;99.90;;;;;;4250129;27;20043;-85
2021/12/28 07:46:49;;;;;;;29.90;9.25;;;5.90;99.90;;;;;;4249251;27;20124;-86
2021/12/28 07:48:50;;;;;;;28.52;8.70;;;6.60;99.90;;;;;;4221760;28;20048;-86
2021/12/28 07:50:52;;;;;;;33.85;9.18;;;6.40;99.90;;;;;;4230538;28;20047;-86
2021/12/28 07:52:55;;;;;;;34.05;9.05;;;6.50;99.90;;;;;;4215552;28;20238;-86
2021/12/28 07:54:56;;;;;;;28.45;9.23;;;6.40;99.90;;;;;;4232467;28;20051;-87
2021/12/28 07:56:59;;;;;;;23.45;8.57;;;6.50;99.90;;;;;;4232457;28;20152;-85
2021/12/28 07:58:59;;;;;;;32.25;9.60;;;5.60;99.90;;;;;;4233971;28;20043;-85
2021/12/28 08:01:02;;;;;;;23.35;7.60;;;5.70;99.90;;;;;;4217307;28;20079;-86
2021/12/28 08:03:04;;;;;;;34.10;8.70;;;6.50;99.90;;;;;;4219006;28;20050;-86
2021/12/28 08:05:06;;;;;;;23.48;8.43;;;6.00;99.90;;;;;;4233392;28;20051;-85
2021/12/28 08:07:07;;;;;;;24.77;7.72;;;5.30;99.90;;;;;;4230998;28;20039;-85
2021/12/28 08:09:08;;;;;;;24.58;7.57;;;5.30;99.90;;;;;;4232544;28;20106;-86
2021/12/28 08:11:08;;;;;;;19.25;7.68;;;6.50;99.90;;;;;;4249989;27;20045;-86
2021/12/28 08:13:10;;;;;;;24.83;8.15;;;5.40;99.90;;;;;;4250221;27;20123;-86
2021/12/28 08:15:12;;;;;;;18.60;8.50;;;6.50;99.90;;;;;;4250749;27;20039;-86
2021/12/28 08:17:15;;;;;;;17.40;6.45;;;6.10;99.90;;;;;;4250071;27;20098;-86
2021/12/28 08:19:18;;;;;;;23.33;7.35;;;5.40;99.90;;;;;;4248118;27;20055;-86
2021/12/28 08:21:20;;;;;;;24.70;7.00;;;5.40;99.90;;;;;;4232528;28;20136;-85
2021/12/28 08:23:21;;;;;;;18.10;6.18;;;6.20;99.90;;;;;;4232120;28;20167;-86
2021/12/28 08:25:23;;;;;;;19.08;6.03;;;4.40;99.90;;;;;;4250425;27;20043;-86
2021/12/28 08:27:24;;;;;;;18.00;7.03;;;5.30;99.90;;;;;;4234490;28;20397;-86
2021/12/28 08:29:25;;;;;;;16.25;5.88;;;6.40;99.90;;;;;;4252940;27;20119;-86
2021/12/28 08:31:26;;;;;;;16.52;6.18;;;;;;;;;;4251176;27;20046;-86
2021/12/28 08:33:29;;;;;;;16.05;6.30;;;;;;;;;;4232377;28;20047;-86
2021/12/28 08:35:30;;;;;;;19.92;6.35;;;;;;;;;;4250484;27;20040;-86
2021/12/28 08:37:31;;;;;;;16.10;4.93;;;;;;;;;;4249099;27;20122;-86
2021/12/28 08:39:32;;;;;;;17.48;5.50;;;5.30;99.90;;;;;;4255892;27;20050;-86
2021/12/28 08:41:32;;;;;;;14.25;5.28;;;5.40;99.90;;;;;;4249289;27;20047;-86
2021/12/28 08:43:33;;;;;;;17.13;4.97;;;5.30;99.90;;;;;;4233650;27;20032;-86
2021/12/28 08:45:36;;;;;;;13.45;5.40;;;6.10;99.90;;;;;;4250045;27;20096;-86
2021/12/28 08:47:38;;;;;;;26.33;5.47;;;6.40;99.90;;;;;;4232349;28;20179;-86
2021/12/28 08:49:41;;;;;;;16.38;5.07;;;5.40;99.90;;;;;;4249949;27;20456;-86
2021/12/28 08:51:42;;;;;;;28.38;6.18;;;5.40;99.90;;;;;;4250382;27;20039;-87
2021/12/28 08:53:43;;;;;;;15.95;5.78;;;6.40;99.90;;;;;;4249594;27;20043;-86
2021/12/28 08:55:44;;;;;;;16.13;4.97;;;4.80;99.90;;;;;;4214168;28;20492;-86
2021/12/28 08:57:44;;;;;;;15.68;5.60;;;5.50;99.90;;;;;;4249699;27;20077;-86
2021/12/28 08:59:46;;;;;;;11.40;4.18;;;6.20;99.90;;;;;;4235147;27;20527;-86
2021/12/28 09:01:49;;;;;;;15.98;4.85;;;5.50;99.90;;;;;;4232042;28;20065;-86
2021/12/28 09:03:49;;;;;;;13.40;5.03;;;6.10;99.90;;;;;;4231091;28;20182;-86
2021/12/28 09:05:51;;;;;;;11.13;4.60;;;6.20;99.90;;;;;;4248602;27;20123;-85
2021/12/28 09:07:53;;;;;;;18.77;5.22;;;5.90;99.90;;;;;;4232117;28;20055;-85
2021/12/28 09:09:55;;;;;;;15.40;5.03;;;6.80;99.90;;;;;;4248085;27;20133;-84
2021/12/28 09:11:57;;;;;;;12.88;5.85;;;6.90;99.90;;;;;;4247856;27;20512;-85
2021/12/28 09:13:57;;;;;;;13.82;4.60;;;6.90;99.90;;;;;;4248441;27;20047;-86
2021/12/28 09:15:58;;;;;;;12.18;4.72;;;6.10;99.90;;;;;;4248194;27;20051;-86
2021/12/28 09:17:59;;;;;;;31.95;5.38;;;6.10;99.90;;;;;;4265985;27;20047;-86
2021/12/28 09:20:06;;;;;;;13.05;4.10;;;5.90;99.90;;;;;;4249299;27;20051;-86
2021/12/28 09:22:07;;;;;;;13.90;5.38;;;6.00;99.90;;;;;;4248709;27;20487;-86
2021/12/28 09:24:09;;;;;;;9.48;3.83;;;6.00;99.90;;;;;;4230752;28;20120;-87
2021/12/28 09:26:10;;;;;;;11.90;4.68;;;6.00;99.90;;;;;;4247798;27;20050;-86
2021/12/28 09:28:11;;;;;;;9.63;4.00;;;5.90;99.90;;;;;;4248460;27;20047;-86
2021/12/28 09:30:13;;;;;;;11.02;4.18;;;6.70;99.90;;;;;;4246804;27;20435;-86
2021/12/28 09:32:14;;;;;;;12.63;4.35;;;6.00;99.90;;;;;;4247416;27;20039;-86
2021/12/28 09:34:16;;;;;;;11.05;4.07;;;6.10;99.90;;;;;;4230317;28;20044;-86
2021/12/28 09:36:18;;;;;;;7.25;3.72;;;6.10;99.90;;;;;;4265917;27;20478;-86
2021/12/28 09:38:22;;;;;;;15.93;3.78;;;6.10;99.90;;;;;;4250380;27;20082;-86
2021/12/28 09:40:23;;;;;;;8.57;3.42;;;6.20;99.90;;;;;;4230363;28;20064;-86
2021/12/28 09:42:25;;;;;;;15.00;4.50;;;6.70;99.90;;;;;;4249670;27;20046;-86
2021/12/28 09:44:28;;;;;;;7.80;3.53;;;7.20;99.90;;;;;;4248214;27;20384;-86
2021/12/28 09:46:30;;;;;;;10.50;3.08;;;6.50;99.90;;;;;;4254184;27;20416;-86
2021/12/28 09:48:32;;;;;;;14.60;3.53;;;6.70;99.90;;;;;;4264901;27;20039;-86
2021/12/28 09:50:34;;;;;;;12.57;3.33;;;6.20;99.90;;;;;;4250576;27;20047;-86
2021/12/28 09:52:36;;;;;;;18.58;3.88;;;7.00;99.90;;;;;;4248683;27;20043;-86
2021/12/28 09:54:39;;;;;;;15.30;4.00;;;6.10;99.90;;;;;;4257324;27;20040;-85
2021/12/28 09:56:40;;;;;;;11.27;3.53;;;7.00;99.90;;;;;;4256745;27;20192;-86
2021/12/28 09:58:42;;;;;;;11.60;3.25;;;6.90;99.90;;;;;;4253489;27;20491;-86
2021/12/28 10:00:43;;;;;;;13.65;3.90;;;6.20;99.90;;;;;;4249020;27;20082;-86
2021/12/28 10:02:45;;;;;;;14.48;3.67;;;6.20;99.90;;;;;;4248092;27;20399;-86
2021/12/28 10:04:58;;;;;;;15.20;4.05;;;6.70;99.90;;;;;;4253946;27;20054;-87
2021/12/28 10:07:21;;;;;;;12.77;3.25;;;6.30;99.90;;;;;;4232938;28;20503;-86
2021/12/28 10:09:22;;;;;;;11.60;3.75;;;6.30;99.90;;;;;;4250215;27;20510;-86
2021/12/28 10:11:49;;;;;;;12.65;4.18;;;6.30;99.90;;;;;;4249536;27;20035;-87
2021/12/28 10:13:50;;;;;;;12.68;4.43;;;7.40;99.90;;;;;;4242670;27;20043;-86
2021/12/28 10:15:52;;;;;;;7.13;3.47;;;6.40;99.90;;;;;;4248773;27;20100;-87
2021/12/28 10:17:56;;;;;;;19.88;3.78;;;7.00;99.90;;;;;;4248907;27;20031;-86
2021/12/28 10:19:58;;;;;;;14.45;3.70;;;6.90;99.90;;;;;;4246927;27;20054;-86
2021/12/28 10:22:28;;;;;;;8.07;2.85;;;7.20;99.90;;;;;;4248700;27;20900;-87
2021/12/28 10:24:35;;;;;;;19.50;3.50;;;6.50;99.90;;;;;;4248674;27;20047;-87
2021/12/28 10:26:35;;;;;;;7.15;2.65;;;6.30;99.90;;;;;;4230310;28;20123;-87
2021/12/28 10:28:39;;;;;;;11.80;3.10;;;7.30;99.90;;;;;;4248467;27;20036;-87
2021/12/28 10:30:43;;;;;;;10.30;3.35;;;7.30;99.90;;;;;;4230128;28;20100;-86
2021/12/28 10:32:46;;;;;;;12.48;3.20;;;7.00;99.90;;;;;;4230539;28;20058;-87